Time;durP1;ratioP1;P1;durP2;ratioP2;P2;SDS_P1;SDS_P2;PMS_P1;PMS_P2;Temp;Humidity;BMP_temperature;BMP_pressure;BME280_temperature;BME280_humidity;BME280_pressure;Samples;Min_cycle;Max_cycle;Signal;HPM_P1;HPM_P2
2023/04/07 00:00:47;;;;;;;20.50;10.47;;;;;;;-141.97;44.71;47761.25;5051400;28;20223;-88
2023/04/07 00:03:13;;;;;;;24.43;11.77;;;;;;;-141.97;44.83;47655.53;5050892;28;20252;-88
2023/04/07 00:05:38;;;;;;;21.50;10.80;;;;;;;-141.97;45.45;47757.41;5051211;28;20265;-88
2023/04/07 00:08:04;;;;;;;21.23;12.43;;;;;;;-141.97;45.55;47684.38;5050660;28;20549;-88
2023/04/07 00:10:29;;;;;;;18.27;10.97;;;;;;;-141.97;44.94;47815.09;5051189;28;20700;-88
2023/04/07 00:12:55;;;;;;;19.20;10.70;;;;;;;-141.97;44.54;47715.13;5049334;28;20177;-88
2023/04/07 00:15:20;;;;;;;20.20;10.43;;;;;;;-141.97;45.12;47822.78;5049262;28;20173;-88
2023/04/07 00:17:46;;;;;;;18.47;10.33;;;;;;;-141.97;45.41;47649.78;5050935;28;20172;-88
2023/04/07 00:20:11;;;;;;;21.13;11.00;;;;;;;-141.97;45.60;47619.03;5050744;28;20188;-88
2023/04/07 00:22:36;;;;;;;21.50;12.60;;;;;;;-141.97;45.94;47743.97;5054439;28;20257;-88
2023/04/07 00:25:02;;;;;;;21.17;12.10;;;;;;;-141.97;45.63;47792.03;5069350;28;20234;-87
2023/04/07 00:27:27;;;;;;;19.37;10.03;;;;;;;-141.97;45.42;47803.56;5079199;28;20184;-87
2023/04/07 00:29:54;;;;;;;20.50;11.17;;;;;;;-141.97;46.06;47699.75;5074773;28;20181;-88
2023/04/07 00:32:20;;;;;;;19.13;11.63;;;;;;;-141.97;45.81;47768.94;5062322;28;20177;-88
2023/04/07 00:34:46;;;;;;;17.97;10.63;;;;;;;-141.97;46.13;47715.13;5065862;28;20408;-88
2023/04/07 00:37:11;;;;;;;20.67;10.90;;;;;;;-141.97;45.92;47776.63;5054808;28;20423;-89
2023/04/07 00:39:37;;;;;;;24.27;13.20;;;;;;;-141.97;46.21;47661.31;5054073;28;20225;-88
2023/04/07 00:42:04;;;;;;;21.83;11.33;;;;;;;-141.97;45.97;47599.81;5052712;28;20287;-88
2023/04/07 00:44:29;;;;;;;19.63;10.47;;;;;;;-141.97;45.91;47720.91;5052259;28;20241;-88
2023/04/07 00:46:55;;;;;;;20.00;10.67;;;;;;;-141.97;46.04;47738.19;5052536;28;20474;-88
2023/04/07 00:49:20;;;;;;;18.23;9.73;;;;;;;-141.97;46.52;47599.81;5053778;28;20224;-89
2023/04/07 00:51:46;;;;;;;21.93;11.70;;;;;;;-141.97;46.69;47749.72;5053740;28;20201;-89
2023/04/07 00:54:12;;;;;;;23.00;12.80;;;;;;;-141.97;46.45;47761.25;5054091;28;20200;-89
2023/04/07 00:56:37;;;;;;;25.13;13.90;;;;;;;-141.97;46.82;47707.44;5053774;28;20173;-87
2023/04/07 00:59:06;;;;;;;22.00;12.50;;;;;;;-141.97;46.42;47718.97;5064160;28;20165;-88
2023/04/07 01:02:01;;;;;;;19.63;9.83;;;;;;;-141.97;46.34;47749.72;5053682;28;20248;-89
2023/04/07 01:05:04;;;;;;;23.23;12.37;;;;;;;-141.97;46.36;47732.44;4972641;28;20873;-89
2023/04/07 01:07:50;;;;;;;22.93;11.83;;;;;;;-141.97;46.05;47667.06;4972428;28;20458;-88
2023/04/07 01:10:21;;;;;;;22.37;12.07;;;;;;;-141.97;45.92;47784.34;4953058;29;20840;-88
2023/04/07 01:12:52;;;;;;;22.97;12.03;;;;;;;-141.97;46.01;47799.72;4970602;28;20508;-89
2023/04/07 01:15:21;;;;;;;19.80;10.53;;;;;;;-141.97;45.77;47682.47;4972511;28;20428;-89
2023/04/07 01:17:54;;;;;;;21.00;11.80;;;;;;;-141.97;45.97;47724.75;4956346;28;20518;-88
2023/04/07 01:20:22;;;;;;;19.07;9.60;;;;;;;-141.97;46.26;47782.41;4956283;28;20458;-89
2023/04/07 01:22:57;;;;;;;21.63;11.53;;;;;;;-141.97;45.99;47732.44;4973920;28;20463;-88
2023/04/07 01:26:06;;;;;;;19.63;10.10;;;;;;;-141.97;46.32;47703.59;4980742;28;20455;-88
2023/04/07 01:28:48;;;;;;;17.70;9.27;;;;;;;-141.97;46.32;47734.34;4972266;28;20524;-88
2023/04/07 01:31:15;;;;;;;22.60;10.43;;;;;;;-141.97;46.47;47811.25;4971984;28;20430;-89
2023/04/07 01:33:44;;;;;;;19.43;10.53;;;;;;;-141.97;46.70;47722.81;4972074;28;20406;-89
2023/04/07 01:36:11;;;;;;;21.63;11.27;;;;;;;-141.97;46.53;47707.44;4956032;28;20441;-90
2023/04/07 01:38:37;;;;;;;20.03;11.20;;;;;;;-141.97;46.28;47780.47;4971590;28;20535;-89
2023/04/07 01:41:04;;;;;;;19.90;11.10;;;;;;;-141.97;46.27;47605.56;5008681;28;20515;-89
2023/04/07 01:43:30;;;;;;;21.07;12.23;;;;;;;-141.97;46.79;47615.19;5054150;28;20396;-89
2023/04/07 01:45:56;;;;;;;19.53;10.73;;;;;;;-141.97;46.84;47801.63;5070848;28;20444;-88
2023/04/07 01:48:23;;;;;;;15.60;9.33;;;;;;;-141.97;46.66;47669.00;5076606;28;20419;-89
2023/04/07 01:50:49;;;;;;;20.00;11.27;;;;;;;-141.97;46.79;47628.63;5073596;28;20420;-89
2023/04/07 01:53:15;;;;;;;19.63;11.83;;;;;;;-141.97;46.91;47792.03;5054375;28;20408;-87
2023/04/07 01:55:42;;;;;;;22.40;11.43;;;;;;;-141.97;46.94;47619.03;5061020;28;20808;-87
2023/04/07 01:58:08;;;;;;;19.60;10.60;;;;;;;-141.97;46.78;47584.44;5052227;28;20231;-89
2023/04/07 02:00:34;;;;;;;21.43;11.47;;;;;;;-141.97;46.84;47609.41;5052740;28;20819;-89
2023/04/07 02:03:19;;;;;;;15.13;8.80;;;;;;;-141.97;46.61;47684.38;5052173;28;20165;-89
2023/04/07 02:05:46;;;;;;;21.73;11.27;;;;;;;-141.97;47.12;47709.38;5052591;28;20200;-89
2023/04/07 02:08:19;;;;;;;18.03;11.37;;;;;;;-141.97;46.79;47788.19;5052585;28;20418;-89
2023/04/07 02:10:47;;;;;;;18.83;9.87;;;;;;;-141.97;46.72;47740.13;5051940;28;20414;-90
2023/04/07 02:13:17;;;;;;;19.57;10.97;;;;;;;-141.97;46.67;47711.28;5051010;28;20416;-89
2023/04/07 02:15:44;;;;;;;21.57;10.77;;;;;;;-141.97;46.52;47647.84;5051854;28;20447;-89
2023/04/07 02:18:13;;;;;;;19.53;11.37;;;;;;;-141.97;46.27;47659.38;5051038;28;20426;-89
2023/04/07 02:20:41;;;;;;;21.23;10.63;;;;;;;-141.97;46.33;47736.28;5050930;28;20412;-89
2023/04/07 02:23:10;;;;;;;19.60;10.87;;;;;;;-141.97;46.76;47730.50;5052033;28;20400;-89
2023/04/07 02:25:38;;;;;;;20.30;10.87;;;;;;;-141.97;46.06;47718.97;5050575;28;20489;-89
2023/04/07 02:28:05;;;;;;;24.33;12.27;;;;;;;-141.97;46.11;47661.31;5052327;28;20937;-89
2023/04/07 02:30:30;;;;;;;20.97;11.50;;;;;;;-141.97;46.59;47676.69;5051796;28;20415;-89
2023/04/07 02:32:56;;;;;;;22.57;12.30;;;;;;;-141.97;46.53;47720.91;5050726;28;20824;-89
2023/04/07 02:35:21;;;;;;;20.07;10.37;;;;;;;-141.97;46.86;47690.16;5051075;28;20178;-89
2023/04/07 02:37:47;;;;;;;19.93;10.47;;;;;;;-141.97;46.63;47726.66;5051240;28;20192;-89
2023/04/07 02:40:13;;;;;;;19.80;9.87;;;;;;;-141.97;46.36;47732.44;5052834;28;20213;-88
2023/04/07 02:42:39;;;;;;;21.07;11.77;;;;;;;-141.97;46.90;47674.78;5055675;28;20219;-89
2023/04/07 02:45:05;;;;;;;21.27;10.13;;;;;;;-141.97;46.82;47734.34;5050776;28;20194;-89
2023/04/07 02:47:32;;;;;;;19.40;10.87;;;;;;;-141.97;46.67;47726.66;5052152;28;20503;-89
2023/04/07 02:49:57;;;;;;;19.07;10.63;;;;;;;-141.97;46.54;47734.34;5074342;28;20487;-89
2023/04/07 02:52:23;;;;;;;20.07;10.87;;;;;;;-141.97;46.14;47676.69;5077273;28;20415;-88
2023/04/07 02:54:48;;;;;;;18.30;9.80;;;;;;;-141.97;45.88;47788.19;5063006;28;20221;-86
2023/04/07 02:57:13;;;;;;;20.07;10.20;;;;;;;-141.97;46.01;47815.09;5052332;28;20626;-89
2023/04/07 02:59:40;;;;;;;19.10;11.50;;;;;;;-141.97;46.04;47665.16;5049970;28;20188;-89
2023/04/07 03:02:05;;;;;;;24.60;11.70;;;;;;;-141.97;45.96;47820.84;5051070;28;20173;-89
2023/04/07 03:04:31;;;;;;;19.40;9.47;;;;;;;-141.97;45.78;47757.41;5051271;28;20486;-89
2023/04/07 03:06:56;;;;;;;21.43;11.77;;;;;;;-141.97;45.90;47674.78;5051977;28;20162;-88
2023/04/07 03:09:22;;;;;;;20.37;11.60;;;;;;;-141.97;46.11;47638.25;5052086;28;20256;-89
2023/04/07 03:11:48;;;;;;;22.10;11.43;;;;;;;-141.97;46.48;47726.66;5051916;28;20162;-89
2023/04/07 03:14:13;;;;;;;19.80;10.87;;;;;;;-141.97;46.60;47684.38;5051899;28;20267;-89
2023/04/07 03:16:39;;;;;;;19.80;11.33;;;;;;;-141.97;46.75;47743.97;5062151;28;20184;-88
2023/04/07 03:19:04;;;;;;;20.27;10.97;;;;;;;-141.97;47.20;47743.97;5054423;28;20173;-89
2023/04/07 03:21:30;;;;;;;20.23;11.53;;;;;;;-141.97;47.40;47649.78;5050338;28;20249;-89
2023/04/07 03:23:56;;;;;;;21.70;12.20;;;;;;;-141.97;47.32;47799.72;5052013;28;20166;-89
2023/04/07 03:26:21;;;;;;;19.50;10.80;;;;;;;-141.97;47.19;47669.00;5052470;28;20435;-89
2023/04/07 03:28:47;;;;;;;23.17;11.60;;;;;;;-141.97;47.28;47747.81;5059186;28;20169;-89
2023/04/07 03:31:12;;;;;;;18.90;10.97;;;;;;;-141.97;47.13;47638.25;5052038;28;20173;-89
2023/04/07 03:33:38;;;;;;;21.83;11.87;;;;;;;-141.97;47.08;47797.78;5050313;28;20264;-89
2023/04/07 03:36:03;;;;;;;20.90;11.17;;;;;;;-141.97;46.97;47788.19;5051954;28;20173;-88
2023/04/07 03:38:29;;;;;;;19.67;11.30;;;;;;;-141.97;47.11;47743.97;5051530;28;20231;-89
2023/04/07 03:40:54;;;;;;;20.37;11.07;;;;;;;-141.97;46.72;47720.91;5053475;28;20245;-90
2023/04/07 03:43:20;;;;;;;20.97;10.97;;;;;;;-141.97;46.76;47722.81;5055563;28;20200;-88
2023/04/07 03:45:46;;;;;;;21.37;11.37;;;;;;;-141.97;46.47;47611.34;5056424;28;20200;-90
2023/04/07 03:48:11;;;;;;;17.93;11.07;;;;;;;-141.97;46.67;47782.41;5060822;28;20170;-88
2023/04/07 03:50:40;;;;;;;21.17;11.67;;;;;;;-141.97;46.74;47718.97;5056363;28;20165;-89
2023/04/07 03:53:06;;;;;;;20.20;10.33;;;;;;;-141.97;46.94;47680.53;5055876;28;20169;-89
2023/04/07 03:55:32;;;;;;;20.93;11.90;;;;;;;-141.97;46.97;47692.06;5056580;28;20930;-89
2023/04/07 03:57:57;;;;;;;22.70;12.13;;;;;;;-141.97;47.28;47692.06;5056969;28;20407;-89
2023/04/07 04:00:23;;;;;;;21.93;11.80;;;;;;;-141.97;47.21;47626.72;5055842;28;20165;-89
2023/04/07 04:02:48;;;;;;;21.63;11.83;;;;;;;-141.97;47.43;47772.78;5054382;28;20231;-91
2023/04/07 04:05:14;;;;;;;21.87;11.60;;;;;;;-141.97;47.60;47703.59;5054851;28;20227;-89
2023/04/07 04:07:39;;;;;;;21.30;10.40;;;;;;;-141.97;47.56;47697.84;5054397;28;20211;-89
2023/04/07 04:10:05;;;;;;;21.57;11.70;;;;;;;-141.97;47.78;47653.63;5054993;28;20173;-88
2023/04/07 04:12:31;;;;;;;19.53;10.07;;;;;;;-141.97;47.22;47745.88;5055592;28;20169;-89
2023/04/07 04:14:56;;;;;;;19.77;12.07;;;;;;;-141.97;47.74;47647.84;5053731;28;20511;-90
2023/04/07 04:17:22;;;;;;;23.10;12.33;;;;;;;-141.97;47.60;47770.88;5053687;28;20165;-89
2023/04/07 04:19:47;;;;;;;22.13;12.50;;;;;;;-141.97;47.31;47595.97;5054770;28;20610;-89
2023/04/07 04:22:13;;;;;;;20.33;11.60;;;;;;;-141.97;47.37;47672.84;5053390;28;20200;-89
2023/04/07 04:24:40;;;;;;;20.97;12.27;;;;;;;-141.97;47.24;47549.84;5053936;28;20223;-90
2023/04/07 04:27:06;;;;;;;24.30;13.33;;;;;;;-141.97;47.71;47770.88;5054711;28;20181;-88
2023/04/07 04:29:33;;;;;;;20.10;10.90;;;;;;;-141.97;47.24;47651.69;5056445;28;20776;-89
2023/04/07 04:31:59;;;;;;;21.97;12.17;;;;;;;-141.97;47.49;47686.31;5056414;28;20189;-89
2023/04/07 04:34:25;;;;;;;26.93;12.80;;;;;;;-141.97;47.92;47642.09;5061493;28;20986;-86
2023/04/07 04:36:50;;;;;;;28.73;13.33;;;;;;;-141.97;48.01;47730.50;5058749;28;20173;-89
2023/04/07 04:39:15;;;;;;;22.50;13.13;;;;;;;-141.97;47.93;47661.31;5055494;28;20241;-88
2023/04/07 04:41:41;;;;;;;23.60;12.70;;;;;;;-141.97;48.11;47692.06;5054092;28;20169;-88
2023/04/07 04:44:06;;;;;;;22.73;12.93;;;;;;;-141.97;48.35;47730.50;5054354;28;20173;-88
2023/04/07 04:46:32;;;;;;;27.70;14.50;;;;;;;-141.97;48.23;47684.38;5059431;28;20259;-89
2023/04/07 04:48:57;;;;;;;28.07;16.43;;;;;;;-141.97;48.69;47742.03;5055002;28;20173;-89
2023/04/07 04:51:22;;;;;;;30.97;16.37;;;;;;;-141.97;48.81;47663.22;5056236;28;20291;-89
2023/04/07 04:53:48;;;;;;;26.37;14.20;;;;;;;-141.97;49.22;47799.72;5058311;28;20223;-89
2023/04/07 04:56:13;;;;;;;30.97;16.47;;;;;;;-141.97;49.28;47684.38;5076308;28;20181;-89
2023/04/07 04:58:41;;;;;;;35.97;18.23;;;;;;;-141.97;49.25;47730.50;5078171;28;20270;-88
2023/04/07 05:01:07;;;;;;;31.60;16.70;;;;;;;-141.97;49.07;47803.56;5068164;28;20181;-89
2023/04/07 05:03:32;;;;;;;37.67;17.87;;;;;;;-141.97;49.40;47676.69;5053820;28;20420;-89
2023/04/07 05:05:58;;;;;;;35.57;16.97;;;;;;;-141.97;49.72;47638.25;5053196;28;20456;-89
2023/04/07 05:08:23;;;;;;;31.13;16.77;;;;;;;-141.97;49.41;47740.13;5053247;28;20331;-89
2023/04/07 05:10:49;;;;;;;27.17;14.37;;;;;;;-141.97;48.93;47713.22;5052962;28;20621;-88
2023/04/07 05:13:14;;;;;;;25.57;13.60;;;;;;;-141.97;48.96;47676.69;5061201;28;20225;-88
2023/04/07 05:15:46;;;;;;;23.57;13.57;;;;;;;-141.97;48.67;47757.41;5078699;28;20173;-88
2023/04/07 05:18:11;;;;;;;23.40;12.13;;;;;;;-141.97;47.08;47653.63;5077689;28;20158;-88
2023/04/07 05:20:37;;;;;;;54.03;22.27;;;;;;;-141.97;47.12;47826.63;5060548;28;20825;-87
2023/04/07 05:23:05;;;;;;;43.70;19.73;;;;;;;-141.97;46.56;47670.91;5054704;28;20170;-88
2023/04/07 05:25:31;;;;;;;25.53;14.60;;;;;;;-141.97;46.36;47611.34;5055349;28;20196;-89
2023/04/07 05:27:58;;;;;;;29.77;15.57;;;;;;;-141.97;45.87;47753.56;5055164;28;20424;-89
2023/04/07 05:30:24;;;;;;;28.50;15.87;;;;;;;-141.97;46.06;47780.47;5055594;28;20248;-89
2023/04/07 05:32:49;;;;;;;47.47;22.83;;;;;;;-141.97;45.18;47817.00;5037237;28;20510;-90
2023/04/07 05:35:15;;;;;;;44.80;23.90;;;;;;;-141.97;45.39;47697.84;5063448;28;20172;-88
2023/04/07 05:37:41;;;;;;;29.03;17.17;;;;;;;-141.97;45.15;47686.31;5053148;28;20214;-88
2023/04/07 05:40:06;;;;;;;30.07;16.17;;;;;;;-141.97;43.18;47815.09;5031981;28;20587;-88
2023/04/07 05:42:32;;;;;;;21.57;12.63;;;;;;;-141.97;42.71;47676.69;5038665;28;20242;-89
2023/04/07 05:44:57;;;;;;;22.17;12.10;;;;;;;-141.97;41.76;47661.31;5055402;28;20197;-89
2023/04/07 05:47:23;;;;;;;17.63;10.47;;;;;;;-141.97;40.87;47713.22;5054322;28;20687;-89
2023/04/07 05:49:48;;;;;;;19.00;10.47;;;;;;;-141.97;41.36;47715.13;5048860;28;20220;-90
2023/04/07 05:52:14;;;;;;;14.90;9.80;;;;;;;-141.97;41.07;47669.00;5045445;28;20174;-89
2023/04/07 05:54:39;;;;;;;14.50;9.80;;;;;;;-141.97;41.59;47665.16;5045741;28;20185;-89
2023/04/07 05:57:06;;;;;;;19.43;10.53;;;;;;;-141.97;41.69;47755.50;5040622;28;20550;-89
2023/04/07 05:59:32;;;;;;;19.30;10.53;;;;;;;-141.97;41.56;47732.44;5034041;28;20178;-89
2023/04/07 06:01:57;;;;;;;22.00;12.23;;;;;;;-141.97;41.91;47692.06;5034276;28;20539;-89
2023/04/07 06:04:23;;;;;;;17.33;10.37;;;;;;;-141.97;40.02;47622.88;5039774;28;20226;-89
2023/04/07 06:06:48;;;;;;;30.23;17.03;;;;;;;-141.97;40.28;47694.00;5034360;28;20631;-88
2023/04/07 06:09:14;;;;;;;31.90;17.33;;;;;;;-141.97;40.17;47661.31;5031647;28;20197;-88
2023/04/07 06:11:39;;;;;;;44.33;24.47;;;;;;;-141.97;39.90;47792.03;5034128;28;20561;-89
2023/04/07 06:14:05;;;;;;;24.33;13.97;;;;;;;-141.97;39.40;47603.66;5032569;28;20178;-88
2023/04/07 06:16:30;;;;;;;18.67;11.37;;;;;;;-141.97;40.04;47644.00;5032128;28;20240;-88
2023/04/07 06:18:55;;;;;;;19.40;11.43;;;;;;;-141.97;39.68;47638.25;5031862;28;20170;-88
2023/04/07 06:21:21;;;;;;;22.73;13.47;;;;;;;-141.97;40.11;47676.69;5034272;28;20612;-87
2023/04/07 06:23:46;;;;;;;22.27;13.80;;;;;;;-141.97;40.07;47572.91;5035032;28;20170;-88
2023/04/07 06:26:12;;;;;;;31.63;16.90;;;;;;;-141.97;39.41;47718.97;5040953;28;20196;-89
2023/04/07 06:28:38;;;;;;;23.10;13.17;;;;;;;-141.97;39.42;47793.94;5050307;28;20552;-90
2023/04/07 06:31:04;;;;;;;25.57;15.10;;;;;;;-141.97;39.33;47720.91;5033840;28;20614;-89
2023/04/07 06:33:29;;;;;;;22.67;13.70;;;;;;;-141.97;38.93;47732.44;5021878;28;20233;-89
2023/04/07 06:35:55;;;;;;;29.90;16.67;;;;;;;-141.97;39.02;47661.31;5031222;28;20197;-89
2023/04/07 06:38:21;;;;;;;49.77;23.07;;;;;;;-141.97;39.36;47615.19;5030412;28;20192;-89
2023/04/07 06:40:46;;;;;;;43.20;21.90;;;;;;;-141.97;38.41;47715.13;5030765;28;20252;-88
2023/04/07 06:43:12;;;;;;;23.03;14.27;;;;;;;-141.97;37.70;47788.19;5035065;28;20180;-88
2023/04/07 06:45:37;;;;;;;24.57;12.90;;;;;;;-141.97;37.50;47813.16;5033429;28;20204;-89
2023/04/07 06:48:04;;;;;;;27.93;17.03;;;;;;;-141.97;38.33;47755.50;5032020;28;20194;-90
2023/04/07 06:50:29;;;;;;;18.37;9.90;;;;;;;-141.97;36.96;47584.44;5032762;28;20178;-91
2023/04/07 06:52:55;;;;;;;19.50;10.33;;;;;;;-141.97;37.57;47626.72;5031738;28;20180;-90
2023/04/07 06:55:20;;;;;;;30.50;18.23;;;;;;;-141.97;37.75;47615.19;5032543;28;20257;-94
2023/04/07 06:57:52;;;;;;;24.70;13.27;;;;;;;-141.97;37.15;47697.84;5035225;28;20552;-93
2023/04/07 07:00:19;;;;;;;18.93;10.40;;;;;;;-141.97;36.30;47805.47;5033078;28;20264;-94
2023/04/07 07:02:44;;;;;;;23.77;11.23;;;;;;;-141.97;36.67;47642.09;5017130;28;20177;-95
2023/04/07 07:05:10;;;;;;;20.50;11.57;;;;;;;-141.97;36.71;47603.66;5033547;28;20644;-92
2023/04/07 07:07:36;;;;;;;25.70;14.20;;;;;;;-141.97;35.89;47703.59;5036293;28;20174;-94
2023/04/07 07:10:02;;;;;;;31.50;14.70;;;;;;;-141.97;36.24;47626.72;5034597;28;20242;-94
2023/04/07 07:12:28;;;;;;;27.70;15.87;;;;;;;-141.97;36.04;47580.59;5041250;28;20182;-92
2023/04/07 07:14:53;;;;;;;32.10;18.77;;;;;;;-141.97;35.93;47767.03;5046003;28;20264;-92
2023/04/07 07:17:19;;;;;;;26.93;15.77;;;;;;;-141.97;35.76;47745.88;5035320;28;20189;-94
2023/04/07 07:19:44;;;;;;;13.87;8.50;;;;;;;-141.97;36.09;47617.09;5038060;28;20162;-93
2023/04/07 07:22:10;;;;;;;17.43;9.70;;;;;;;-141.97;35.95;47768.94;5034999;28;20178;-91
2023/04/07 07:24:35;;;;;;;20.23;11.73;;;;;;;-141.97;36.05;47615.19;5035691;28;20270;-91
2023/04/07 07:27:02;;;;;;;19.17;12.57;;;;;;;-141.97;35.37;47684.38;5048364;28;20177;-93
2023/04/07 07:29:27;;;;;;;23.63;13.10;;;;;;;-141.97;35.88;47590.19;5046703;28;20169;-93
2023/04/07 07:31:53;;;;;;;16.13;9.50;;;;;;;-141.97;35.74;47778.56;5038136;28;20180;-93
2023/04/07 07:34:18;;;;;;;17.33;10.50;;;;;;;-141.97;36.14;47597.88;5038109;28;20165;-93
2023/04/07 07:36:44;;;;;;;13.23;8.90;;;;;;;-141.97;35.46;47588.28;5044289;28;20173;-92
2023/04/07 07:39:09;;;;;;;23.43;14.57;;;;;;;-141.97;35.83;47530.59;5042985;28;20228;-92
2023/04/07 07:41:35;;;;;;;17.53;10.13;;;;;;;-141.97;35.54;47684.38;5075715;23;20315;-91
2023/04/07 07:44:35;;;;;;;18.77;11.37;;;;;;;-141.97;35.29;47692.06;5224242;23;20335;31
2023/04/07 07:47:00;;;;;;;20.40;13.27;;;;;;;-141.97;35.29;47711.28;5029265;28;20230;-92
2023/04/07 07:49:26;;;;;;;17.77;11.50;;;;;;;-141.97;35.74;47790.09;4995093;28;20289;-91
2023/04/07 07:51:51;;;;;;;18.53;10.87;;;;;;;-141.97;35.05;47584.44;4995049;28;20562;-89
2023/04/07 07:54:17;;;;;;;15.20;9.60;;;;;;;-141.97;35.71;47792.03;4996106;28;20167;-90
2023/04/07 07:56:42;;;;;;;17.40;11.03;;;;;;;-141.97;35.35;47661.31;5013359;28;20210;-90
2023/04/07 07:59:08;;;;;;;16.50;10.43;;;;;;;-141.97;35.11;47711.28;4996897;28;20195;-90
2023/04/07 08:01:33;;;;;;;19.80;11.83;;;;;;;-141.97;34.84;47611.34;4995697;28;20249;-91
2023/04/07 08:03:59;;;;;;;17.10;11.67;;;;;;;-141.97;34.62;47607.50;4995913;28;20183;-91
2023/04/07 08:06:25;;;;;;;17.37;11.57;;;;;;;-141.97;34.85;47624.78;5011431;28;20172;-90
2023/04/07 08:08:51;;;;;;;20.13;12.07;;;;;;;-141.97;34.04;47607.50;5021532;28;20199;-92
2023/04/07 08:11:16;;;;;;;19.77;10.43;;;;;;;-141.97;33.79;47699.75;5012100;28;20205;-90
2023/04/07 08:13:44;;;;;;;18.37;12.17;;;;;;;-141.97;34.25;47674.78;5026440;28;20779;-91
2023/04/07 08:16:10;;;;;;;19.67;11.97;;;;;;;-141.97;33.78;47672.84;4997876;28;20175;-91
2023/04/07 08:18:36;;;;;;;16.37;8.30;;;;;;;-141.97;32.77;47626.72;5000179;28;20638;-90
2023/04/07 08:21:03;;;;;;;20.10;11.13;;;;;;;-141.97;33.37;47619.03;4995539;28;20222;-90
2023/04/07 08:23:29;;;;;;;19.67;12.27;;;;;;;-141.97;33.07;47572.91;4996822;28;20659;-89
2023/04/07 08:25:55;;;;;;;16.60;11.43;;;;;;;-141.97;32.92;47692.06;4995881;28;20202;-90
2023/04/07 08:28:21;;;;;;;17.60;10.97;;;;;;;-141.97;31.98;47678.63;4999498;28;20233;-91
2023/04/07 08:30:47;;;;;;;17.43;11.40;;;;;;;-141.97;32.28;47576.75;4994956;28;20191;-88
2023/04/07 08:33:12;;;;;;;15.60;9.50;;;;;;;-141.97;31.67;47630.56;5014113;28;20906;-92
2023/04/07 08:35:38;;;;;;;12.80;8.70;;;;;;;-141.97;30.77;47561.38;4996039;28;20226;-93
2023/04/07 08:38:04;;;;;;;11.93;7.80;;;;;;;-141.97;31.15;47667.06;4995366;28;20187;-94
2023/04/07 08:40:31;;;;;;;16.47;10.33;;;;;;;-141.97;32.02;47494.09;5010965;28;20222;-92
2023/04/07 08:42:59;;;;;;;19.17;10.93;;;;;;;-141.97;31.79;47653.63;4995909;28;20179;-93
2023/04/07 08:45:25;;;;;;;16.07;10.30;;;;;;;-141.97;31.54;47755.50;4995269;28;20630;-94
2023/04/07 08:47:55;;;;;;;14.03;9.37;;;;;;;-141.97;31.15;47601.72;4994523;28;20187;-95
2023/04/07 08:50:25;;;;;;;14.13;9.40;;;;;;;-141.97;31.99;47665.16;4994317;28;20277;-89
2023/04/07 08:52:54;;;;;;;13.33;9.03;;;;;;;-141.97;31.80;47546.00;4994646;28;20624;-90
2023/04/07 08:55:20;;;;;;;12.17;8.30;;;;;;;-141.97;31.01;47778.56;5026169;28;20686;-90
2023/04/07 08:57:46;;;;;;;13.00;8.80;;;;;;;-141.97;30.51;47620.94;4995089;28;20211;-90
2023/04/07 09:00:13;;;;;;;13.50;8.17;;;;;;;-141.97;29.93;47559.44;5010082;28;20210;-91
2023/04/07 09:02:40;;;;;;;12.57;7.93;;;;;;;-141.97;30.32;47603.66;4995442;28;20254;-93
2023/04/07 09:05:09;;;;;;;15.17;8.30;;;;;;;-141.97;30.37;47567.13;5011915;28;20214;-93
2023/04/07 09:07:36;;;;;;;12.40;8.30;;;;;;;-141.97;30.05;47695.91;4994696;28;20290;-91
2023/04/07 09:10:02;;;;;;;12.33;8.50;;;;;;;-141.97;30.62;47676.69;5010056;28;20266;-92
2023/04/07 09:12:29;;;;;;;12.07;8.70;;;;;;;-141.97;30.21;47682.47;4995199;28;20199;-89
2023/04/07 09:14:54;;;;;;;13.83;9.00;;;;;;;-141.97;30.30;47699.75;4994129;28;20203;-90
2023/04/07 09:17:20;;;;;;;15.30;10.70;;;;;;;-141.97;30.52;47680.53;4995837;28;20615;-90
2023/04/07 09:19:46;;;;;;;13.37;8.10;;;;;;;-141.97;30.75;47622.88;4993382;28;20195;-91
2023/04/07 09:22:13;;;;;;;12.10;8.27;;;;;;;-141.97;31.02;47572.91;4993166;28;20183;-91
2023/04/07 09:24:39;;;;;;;12.47;7.90;;;;;;;-141.97;30.45;47578.66;4995379;28;20262;-91
2023/04/07 09:27:11;;;;;;;12.37;8.20;;;;;;;-141.97;30.20;47611.34;4993394;28;20167;-91
2023/04/07 09:29:37;;;;;;;12.50;7.77;;;;;;;-141.97;30.51;47636.31;4994490;28;20985;-91
2023/04/07 09:32:03;;;;;;;11.90;7.67;;;;;;;-141.97;29.92;47703.59;4989977;28;20257;-92
2023/04/07 09:34:37;;;;;;;12.60;8.47;;;;;;;-141.97;30.86;47551.75;4993974;28;20233;-91
2023/04/07 09:37:04;;;;;;;10.37;7.60;;;;;;;-141.97;30.75;47676.69;4995091;28;20194;-90
2023/04/07 09:39:30;;;;;;;12.53;7.83;;;;;;;-141.97;31.22;47801.63;4997203;28;20716;-91
2023/04/07 09:41:56;;;;;;;14.73;9.00;;;;;;;-141.97;30.92;47745.88;5026211;28;20179;-92
2023/04/07 09:44:23;;;;;;;13.37;8.37;;;;;;;-141.97;30.69;47665.16;4994264;28;20183;-90
2023/04/07 09:46:57;;;;;;;12.50;8.93;;;;;;;-141.97;30.34;47549.84;4995938;28;20277;-91
2023/04/07 09:49:23;;;;;;;14.27;8.87;;;;;;;-141.97;30.29;47669.00;5017614;28;20167;-92
2023/04/07 09:51:52;;;;;;;11.60;8.37;;;;;;;-141.97;30.57;47665.16;4996102;28;20174;-93
2023/04/07 09:54:34;;;;;;;15.10;9.27;;;;;;;-141.97;30.72;47653.63;5013127;28;20178;-90
2023/04/07 09:57:01;;;;;;;16.57;8.93;;;;;;;-141.97;30.40;47763.19;5030885;28;20169;-90
2023/04/07 09:59:27;;;;;;;12.47;8.30;;;;;;;-141.97;30.46;47653.63;5005019;28;20179;-90
2023/04/07 10:01:54;;;;;;;13.63;9.33;;;;;;;-141.97;30.53;47807.41;4997356;28;20186;-91
2023/04/07 10:04:19;;;;;;;10.87;7.93;;;;;;;-141.97;30.22;47828.53;5018644;28;20187;-91
2023/04/07 10:06:46;;;;;;;11.60;8.57;;;;;;;-141.97;30.11;47613.25;5020008;28;20198;-90
2023/04/07 10:09:12;;;;;;;11.30;7.97;;;;;;;-141.97;30.63;47786.25;5024561;28;20175;-92
2023/04/07 10:11:41;;;;;;;14.53;8.10;;;;;;;-141.97;30.25;47515.22;4997282;28;20185;-92
2023/04/07 10:14:08;;;;;;;14.67;8.73;;;;;;;-141.97;30.00;47620.94;5008284;28;20163;-91
2023/04/07 10:16:35;;;;;;;14.00;8.40;;;;;;;-141.97;28.92;47553.69;5014667;28;20183;-90
2023/04/07 10:19:01;;;;;;;11.60;7.87;;;;;;;-141.97;29.75;47720.91;5030666;28;20170;-92
2023/04/07 10:21:27;;;;;;;12.00;8.70;;;;;;;-141.97;30.61;47772.78;4999754;28;20178;-91
2023/04/07 10:24:04;;;;;;;12.60;8.80;;;;;;;-141.97;30.16;47699.75;4996513;28;20261;-91
2023/04/07 10:26:33;;;;;;;11.83;7.57;;;;;;;-141.97;30.05;47488.31;4998160;28;20206;-90
2023/04/07 10:29:10;;;;;;;13.23;8.30;;;;;;;-141.97;29.74;47726.66;5014845;28;20179;-91
2023/04/07 10:31:37;;;;;;;14.47;8.30;;;;;;;-141.97;30.03;47665.16;4989039;28;20238;-91
2023/04/07 10:34:03;;;;;;;13.80;8.87;;;;;;;-141.97;30.03;47494.09;4996893;28;20265;-90
2023/04/07 10:36:29;;;;;;;13.40;8.70;;;;;;;-141.97;29.93;47584.44;5013431;28;20225;-91
2023/04/07 10:39:07;;;;;;;11.97;8.37;;;;;;;-141.97;29.79;47682.47;4999710;28;20273;-93
2023/04/07 10:41:35;;;;;;;12.20;8.07;;;;;;;-141.97;29.41;47661.31;5014432;28;20171;-89
2023/04/07 10:44:02;;;;;;;28.07;9.87;;;;;;;-141.97;29.60;47607.50;4997809;28;20209;-91
2023/04/07 10:46:47;;;;;;;15.83;8.37;;;;;;;-141.97;29.53;47619.03;4995766;28;20714;-90
2023/04/07 10:49:13;;;;;;;13.17;8.80;;;;;;;-141.97;28.82;47672.84;5012221;28;20182;-89
2023/04/07 10:51:39;;;;;;;13.00;8.80;;;;;;;-141.97;28.97;47653.63;5015043;28;20181;-91
2023/04/07 10:54:21;;;;;;;12.27;8.83;;;;;;;-141.97;28.93;47674.78;4998822;28;20170;-92
2023/04/07 10:57:17;;;;;;;13.03;8.97;;;;;;;-141.97;28.75;47680.53;4999110;28;20178;-92
2023/04/07 11:00:10;;;;;;;15.13;10.20;;;;;;;-141.97;29.94;47661.31;4995743;28;20658;-91
2023/04/07 11:02:38;;;;;;;16.10;10.47;;;;;;;-141.97;29.64;47772.78;5010826;28;20167;-91
2023/04/07 11:05:03;;;;;;;14.17;9.77;;;;;;;-141.97;30.18;47613.25;4994848;28;20382;-91